sensor_id;sensor_type;location;lat;lon;timestamp;P1;durP1;ratioP1;P2;durP2;ratioP2
38379;SDS011;38377;47.418;18.882;2023-06-14T00:01:54;6.05;;;4.35;;
38379;SDS011;38377;47.418;18.882;2023-06-14T00:04:20;4.68;;;4.18;;
38379;SDS011;38377;47.418;18.882;2023-06-14T00:06:47;6.57;;;4.68;;
38379;SDS011;38377;47.418;18.882;2023-06-14T00:09:13;5.55;;;4.32;;
38379;SDS011;38377;47.418;18.882;2023-06-14T00:11:41;5.57;;;4.10;;
38379;SDS011;38377;47.418;18.882;2023-06-14T00:14:08;7.15;;;4.43;;
38379;SDS011;38377;47.418;18.882;2023-06-14T00:16:34;5.00;;;3.97;;
38379;SDS011;38377;47.418;18.882;2023-06-14T00:19:03;5.20;;;3.83;;
38379;SDS011;38377;47.418;18.882;2023-06-14T00:21:32;5.47;;;3.55;;
38379;SDS011;38377;47.418;18.882;2023-06-14T00:23:58;5.65;;;4.05;;
38379;SDS011;38377;47.418;18.882;2023-06-14T00:26:24;6.10;;;4.22;;
38379;SDS011;38377;47.418;18.882;2023-06-14T00:28:51;5.55;;;4.78;;
38379;SDS011;38377;47.418;18.882;2023-06-14T00:31:17;7.25;;;4.47;;
38379;SDS011;38377;47.418;18.882;2023-06-14T00:33:42;5.43;;;4.45;;
38379;SDS011;38377;47.418;18.882;2023-06-14T00:36:08;6.05;;;4.40;;
38379;SDS011;38377;47.418;18.882;2023-06-14T00:38:34;5.43;;;3.85;;
38379;SDS011;38377;47.418;18.882;2023-06-14T00:41:00;6.15;;;4.20;;
38379;SDS011;38377;47.418;18.882;2023-06-14T00:43:26;5.63;;;4.07;;
38379;SDS011;38377;47.418;18.882;2023-06-14T00:45:51;5.32;;;4.60;;
38379;SDS011;38377;47.418;18.882;2023-06-14T00:48:17;5.35;;;4.57;;
38379;SDS011;38377;47.418;18.882;2023-06-14T00:50:44;6.22;;;4.57;;
38379;SDS011;38377;47.418;18.882;2023-06-14T00:53:11;6.60;;;4.00;;
38379;SDS011;38377;47.418;18.882;2023-06-14T00:55:37;6.68;;;4.60;;
38379;SDS011;38377;47.418;18.882;2023-06-14T00:58:03;5.88;;;4.75;;
38379;SDS011;38377;47.418;18.882;2023-06-14T01:00:29;6.10;;;4.78;;
38379;SDS011;38377;47.418;18.882;2023-06-14T01:02:54;7.45;;;4.75;;
38379;SDS011;38377;47.418;18.882;2023-06-14T01:05:21;5.50;;;4.55;;
38379;SDS011;38377;47.418;18.882;2023-06-14T01:10:32;6.88;;;4.80;;
38379;SDS011;38377;47.418;18.882;2023-06-14T01:15:30;10.05;;;5.38;;
38379;SDS011;38377;47.418;18.882;2023-06-14T01:18:00;6.50;;;4.90;;
38379;SDS011;38377;47.418;18.882;2023-06-14T01:20:29;6.32;;;4.75;;
38379;SDS011;38377;47.418;18.882;2023-06-14T01:22:57;6.57;;;4.70;;
38379;SDS011;38377;47.418;18.882;2023-06-14T01:25:23;7.07;;;5.57;;
38379;SDS011;38377;47.418;18.882;2023-06-14T01:27:50;7.20;;;5.35;;
38379;SDS011;38377;47.418;18.882;2023-06-14T01:30:18;6.60;;;5.30;;
38379;SDS011;38377;47.418;18.882;2023-06-14T01:32:46;8.63;;;5.07;;
38379;SDS011;38377;47.418;18.882;2023-06-14T01:35:13;7.03;;;5.15;;
38379;SDS011;38377;47.418;18.882;2023-06-14T01:37:39;8.07;;;6.00;;
38379;SDS011;38377;47.418;18.882;2023-06-14T01:40:07;7.57;;;5.45;;
38379;SDS011;38377;47.418;18.882;2023-06-14T01:42:35;9.50;;;5.93;;
38379;SDS011;38377;47.418;18.882;2023-06-14T01:45:04;8.80;;;6.43;;
38379;SDS011;38377;47.418;18.882;2023-06-14T01:47:31;9.57;;;6.00;;
38379;SDS011;38377;47.418;18.882;2023-06-14T01:49:57;7.82;;;6.40;;
38379;SDS011;38377;47.418;18.882;2023-06-14T01:52:23;9.30;;;6.68;;
38379;SDS011;38377;47.418;18.882;2023-06-14T01:54:49;10.65;;;7.07;;
38379;SDS011;38377;47.418;18.882;2023-06-14T01:57:15;10.38;;;6.85;;
38379;SDS011;38377;47.418;18.882;2023-06-14T01:59:41;10.65;;;7.15;;
38379;SDS011;38377;47.418;18.882;2023-06-14T02:02:07;9.85;;;7.25;;
38379;SDS011;38377;47.418;18.882;2023-06-14T02:04:33;11.52;;;7.50;;
38379;SDS011;38377;47.418;18.882;2023-06-14T02:06:58;10.93;;;7.32;;
38379;SDS011;38377;47.418;18.882;2023-06-14T02:09:24;12.23;;;7.90;;
38379;SDS011;38377;47.418;18.882;2023-06-14T02:11:50;10.20;;;7.72;;
38379;SDS011;38377;47.418;18.882;2023-06-14T02:14:16;12.13;;;8.60;;
38379;SDS011;38377;47.418;18.882;2023-06-14T02:16:42;11.77;;;7.82;;
38379;SDS011;38377;47.418;18.882;2023-06-14T02:19:17;12.13;;;8.55;;
38379;SDS011;38377;47.418;18.882;2023-06-14T02:21:43;12.68;;;8.02;;
38379;SDS011;38377;47.418;18.882;2023-06-14T02:24:09;10.80;;;7.80;;
38379;SDS011;38377;47.418;18.882;2023-06-14T02:26:35;13.73;;;8.80;;
38379;SDS011;38377;47.418;18.882;2023-06-14T02:31:35;14.32;;;8.73;;
38379;SDS011;38377;47.418;18.882;2023-06-14T02:34:01;13.55;;;9.40;;
38379;SDS011;38377;47.418;18.882;2023-06-14T02:36:27;13.52;;;8.20;;
38379;SDS011;38377;47.418;18.882;2023-06-14T02:38:55;12.73;;;8.38;;
38379;SDS011;38377;47.418;18.882;2023-06-14T02:41:23;13.27;;;9.05;;
38379;SDS011;38377;47.418;18.882;2023-06-14T02:43:49;13.52;;;9.48;;
38379;SDS011;38377;47.418;18.882;2023-06-14T02:46:16;14.40;;;9.18;;
38379;SDS011;38377;47.418;18.882;2023-06-14T02:48:41;13.60;;;9.18;;
38379;SDS011;38377;47.418;18.882;2023-06-14T02:51:07;14.23;;;9.73;;
38379;SDS011;38377;47.418;18.882;2023-06-14T02:53:35;12.60;;;9.27;;
38379;SDS011;38377;47.418;18.882;2023-06-14T02:56:01;13.48;;;9.02;;
38379;SDS011;38377;47.418;18.882;2023-06-14T02:58:29;13.40;;;8.98;;
38379;SDS011;38377;47.418;18.882;2023-06-14T03:00:55;17.63;;;10.15;;
38379;SDS011;38377;47.418;18.882;2023-06-14T03:03:20;15.80;;;10.13;;
38379;SDS011;38377;47.418;18.882;2023-06-14T03:05:49;16.95;;;9.43;;
38379;SDS011;38377;47.418;18.882;2023-06-14T03:08:16;15.15;;;9.35;;
38379;SDS011;38377;47.418;18.882;2023-06-14T03:10:47;17.10;;;9.95;;
38379;SDS011;38377;47.418;18.882;2023-06-14T03:13:13;15.75;;;10.18;;
38379;SDS011;38377;47.418;18.882;2023-06-14T03:15:41;14.80;;;10.15;;
38379;SDS011;38377;47.418;18.882;2023-06-14T03:18:08;18.23;;;10.70;;
38379;SDS011;38377;47.418;18.882;2023-06-14T03:20:34;15.52;;;10.15;;
38379;SDS011;38377;47.418;18.882;2023-06-14T03:23:01;17.48;;;10.38;;
38379;SDS011;38377;47.418;18.882;2023-06-14T03:25:28;15.77;;;9.60;;
38379;SDS011;38377;47.418;18.882;2023-06-14T03:27:55;14.93;;;10.40;;
38379;SDS011;38377;47.418;18.882;2023-06-14T03:30:21;16.27;;;9.75;;
38379;SDS011;38377;47.418;18.882;2023-06-14T03:32:46;14.77;;;9.88;;
38379;SDS011;38377;47.418;18.882;2023-06-14T03:35:12;14.52;;;10.07;;
38379;SDS011;38377;47.418;18.882;2023-06-14T03:37:42;14.30;;;9.77;;
38379;SDS011;38377;47.418;18.882;2023-06-14T03:40:09;14.60;;;9.95;;
38379;SDS011;38377;47.418;18.882;2023-06-14T03:42:36;16.08;;;10.43;;
38379;SDS011;38377;47.418;18.882;2023-06-14T03:45:02;17.33;;;10.00;;
38379;SDS011;38377;47.418;18.882;2023-06-14T03:47:28;16.27;;;10.52;;
38379;SDS011;38377;47.418;18.882;2023-06-14T03:49:54;14.65;;;10.45;;
38379;SDS011;38377;47.418;18.882;2023-06-14T03:52:20;16.92;;;11.00;;
38379;SDS011;38377;47.418;18.882;2023-06-14T03:54:47;14.02;;;9.60;;
38379;SDS011;38377;47.418;18.882;2023-06-14T03:57:12;15.07;;;9.65;;
38379;SDS011;38377;47.418;18.882;2023-06-14T03:59:38;15.43;;;9.55;;
38379;SDS011;38377;47.418;18.882;2023-06-14T04:02:04;17.65;;;10.48;;
38379;SDS011;38377;47.418;18.882;2023-06-14T04:04:30;17.70;;;11.02;;
38379;SDS011;38377;47.418;18.882;2023-06-14T04:06:56;18.65;;;11.40;;
38379;SDS011;38377;47.418;18.882;2023-06-14T04:09:23;17.35;;;9.63;;
38379;SDS011;38377;47.418;18.882;2023-06-14T04:11:50;16.67;;;10.30;;
38379;SDS011;38377;47.418;18.882;2023-06-14T04:14:18;15.50;;;10.07;;
38379;SDS011;38377;47.418;18.882;2023-06-14T04:16:45;14.18;;;9.35;;
38379;SDS011;38377;47.418;18.882;2023-06-14T04:19:11;15.55;;;10.88;;
38379;SDS011;38377;47.418;18.882;2023-06-14T04:21:37;16.52;;;10.30;;
38379;SDS011;38377;47.418;18.882;2023-06-14T04:24:02;14.10;;;9.05;;
38379;SDS011;38377;47.418;18.882;2023-06-14T04:26:29;17.65;;;10.15;;
38379;SDS011;38377;47.418;18.882;2023-06-14T04:28:55;14.30;;;9.65;;
38379;SDS011;38377;47.418;18.882;2023-06-14T04:31:22;13.75;;;9.48;;
38379;SDS011;38377;47.418;18.882;2023-06-14T04:33:50;13.57;;;9.35;;
38379;SDS011;38377;47.418;18.882;2023-06-14T04:36:18;12.77;;;9.60;;
38379;SDS011;38377;47.418;18.882;2023-06-14T04:41:48;12.95;;;9.10;;
38379;SDS011;38377;47.418;18.882;2023-06-14T04:44:18;12.05;;;9.20;;
38379;SDS011;38377;47.418;18.882;2023-06-14T04:46:45;12.73;;;8.48;;
38379;SDS011;38377;47.418;18.882;2023-06-14T04:49:15;10.60;;;8.10;;
38379;SDS011;38377;47.418;18.882;2023-06-14T04:51:42;11.68;;;8.57;;
38379;SDS011;38377;47.418;18.882;2023-06-14T04:54:09;11.38;;;7.75;;
38379;SDS011;38377;47.418;18.882;2023-06-14T04:56:38;11.80;;;7.97;;
38379;SDS011;38377;47.418;18.882;2023-06-14T04:59:03;11.90;;;8.32;;
38379;SDS011;38377;47.418;18.882;2023-06-14T05:01:30;12.02;;;7.70;;
38379;SDS011;38377;47.418;18.882;2023-06-14T05:03:59;17.33;;;8.73;;
38379;SDS011;38377;47.418;18.882;2023-06-14T05:06:25;10.20;;;7.25;;
38379;SDS011;38377;47.418;18.882;2023-06-14T05:08:54;13.23;;;8.77;;
38379;SDS011;38377;47.418;18.882;2023-06-14T05:11:19;10.20;;;8.35;;
38379;SDS011;38377;47.418;18.882;2023-06-14T05:13:45;11.48;;;8.23;;
38379;SDS011;38377;47.418;18.882;2023-06-14T05:16:11;13.10;;;7.40;;
38379;SDS011;38377;47.418;18.882;2023-06-14T05:18:38;12.02;;;7.85;;
38379;SDS011;38377;47.418;18.882;2023-06-14T05:21:05;11.18;;;7.22;;
38379;SDS011;38377;47.418;18.882;2023-06-14T05:23:31;10.73;;;6.85;;
38379;SDS011;38377;47.418;18.882;2023-06-14T05:25:57;11.82;;;6.60;;
38379;SDS011;38377;47.418;18.882;2023-06-14T05:28:23;12.70;;;7.65;;
38379;SDS011;38377;47.418;18.882;2023-06-14T05:30:49;11.70;;;6.95;;
38379;SDS011;38377;47.418;18.882;2023-06-14T05:33:15;10.93;;;7.85;;
38379;SDS011;38377;47.418;18.882;2023-06-14T05:35:40;9.20;;;7.43;;
38379;SDS011;38377;47.418;18.882;2023-06-14T05:38:06;13.60;;;7.40;;
38379;SDS011;38377;47.418;18.882;2023-06-14T05:40:32;9.43;;;6.95;;
38379;SDS011;38377;47.418;18.882;2023-06-14T05:42:58;12.57;;;7.60;;
38379;SDS011;38377;47.418;18.882;2023-06-14T05:45:24;10.32;;;6.97;;
38379;SDS011;38377;47.418;18.882;2023-06-14T05:47:49;11.10;;;7.45;;
38379;SDS011;38377;47.418;18.882;2023-06-14T05:50:16;12.75;;;6.60;;
38379;SDS011;38377;47.418;18.882;2023-06-14T05:52:41;10.82;;;7.75;;
38379;SDS011;38377;47.418;18.882;2023-06-14T05:55:07;9.77;;;7.05;;
38379;SDS011;38377;47.418;18.882;2023-06-14T05:57:33;12.80;;;7.10;;
38379;SDS011;38377;47.418;18.882;2023-06-14T05:59:59;10.20;;;6.93;;
38379;SDS011;38377;47.418;18.882;2023-06-14T06:02:25;8.60;;;6.57;;
38379;SDS011;38377;47.418;18.882;2023-06-14T06:04:50;9.90;;;7.35;;
38379;SDS011;38377;47.418;18.882;2023-06-14T06:07:16;10.07;;;6.65;;
38379;SDS011;38377;47.418;18.882;2023-06-14T06:09:42;13.48;;;6.85;;
38379;SDS011;38377;47.418;18.882;2023-06-14T06:12:08;14.50;;;7.22;;
38379;SDS011;38377;47.418;18.882;2023-06-14T06:14:34;9.73;;;6.65;;
38379;SDS011;38377;47.418;18.882;2023-06-14T06:16:59;9.00;;;6.50;;
38379;SDS011;38377;47.418;18.882;2023-06-14T06:19:25;10.82;;;7.22;;
38379;SDS011;38377;47.418;18.882;2023-06-14T06:21:51;11.95;;;6.65;;
38379;SDS011;38377;47.418;18.882;2023-06-14T06:24:16;10.45;;;6.50;;
38379;SDS011;38377;47.418;18.882;2023-06-14T06:26:42;10.48;;;6.93;;
38379;SDS011;38377;47.418;18.882;2023-06-14T06:29:08;9.13;;;6.78;;
38379;SDS011;38377;47.418;18.882;2023-06-14T06:31:33;9.88;;;7.82;;
38379;SDS011;38377;47.418;18.882;2023-06-14T06:33:59;9.18;;;7.32;;
38379;SDS011;38377;47.418;18.882;2023-06-14T06:36:25;9.25;;;6.70;;
38379;SDS011;38377;47.418;18.882;2023-06-14T06:38:51;9.13;;;6.47;;
38379;SDS011;38377;47.418;18.882;2023-06-14T06:41:16;9.60;;;6.72;;
38379;SDS011;38377;47.418;18.882;2023-06-14T06:43:43;9.82;;;6.35;;
38379;SDS011;38377;47.418;18.882;2023-06-14T06:46:09;14.63;;;12.07;;
38379;SDS011;38377;47.418;18.882;2023-06-14T06:48:34;11.20;;;6.90;;
38379;SDS011;38377;47.418;18.882;2023-06-14T06:51:00;12.55;;;7.53;;
38379;SDS011;38377;47.418;18.882;2023-06-14T06:53:26;12.48;;;6.88;;
38379;SDS011;38377;47.418;18.882;2023-06-14T06:55:51;10.60;;;6.53;;
38379;SDS011;38377;47.418;18.882;2023-06-14T06:58:17;8.52;;;6.70;;
38379;SDS011;38377;47.418;18.882;2023-06-14T07:00:43;11.52;;;6.70;;
38379;SDS011;38377;47.418;18.882;2023-06-14T07:03:08;11.23;;;6.68;;
38379;SDS011;38377;47.418;18.882;2023-06-14T07:05:34;11.15;;;6.70;;
38379;SDS011;38377;47.418;18.882;2023-06-14T07:08:00;9.93;;;6.35;;
38379;SDS011;38377;47.418;18.882;2023-06-14T07:10:26;10.77;;;7.18;;
38379;SDS011;38377;47.418;18.882;2023-06-14T07:12:51;12.18;;;8.05;;
38379;SDS011;38377;47.418;18.882;2023-06-14T07:15:17;10.30;;;7.18;;
38379;SDS011;38377;47.418;18.882;2023-06-14T07:17:43;11.68;;;7.97;;
38379;SDS011;38377;47.418;18.882;2023-06-14T07:20:08;13.05;;;7.53;;
38379;SDS011;38377;47.418;18.882;2023-06-14T07:22:39;13.60;;;7.82;;
38379;SDS011;38377;47.418;18.882;2023-06-14T07:25:09;20.43;;;8.67;;
38379;SDS011;38377;47.418;18.882;2023-06-14T07:27:37;12.05;;;7.82;;
38379;SDS011;38377;47.418;18.882;2023-06-14T07:30:03;10.90;;;7.57;;
38379;SDS011;38377;47.418;18.882;2023-06-14T07:32:29;10.30;;;8.27;;
38379;SDS011;38377;47.418;18.882;2023-06-14T07:34:55;12.05;;;7.75;;
38379;SDS011;38377;47.418;18.882;2023-06-14T07:37:20;10.18;;;7.18;;
38379;SDS011;38377;47.418;18.882;2023-06-14T07:39:46;11.27;;;7.93;;
38379;SDS011;38377;47.418;18.882;2023-06-14T07:42:12;11.95;;;7.30;;
38379;SDS011;38377;47.418;18.882;2023-06-14T07:44:37;11.00;;;7.50;;
38379;SDS011;38377;47.418;18.882;2023-06-14T07:47:03;9.43;;;6.85;;
38379;SDS011;38377;47.418;18.882;2023-06-14T07:49:29;12.23;;;6.65;;
38379;SDS011;38377;47.418;18.882;2023-06-14T07:51:55;12.07;;;7.88;;
38379;SDS011;38377;47.418;18.882;2023-06-14T07:54:21;9.80;;;6.70;;
38379;SDS011;38377;47.418;18.882;2023-06-14T07:56:51;10.05;;;6.45;;
38379;SDS011;38377;47.418;18.882;2023-06-14T07:59:17;10.43;;;6.90;;
38379;SDS011;38377;47.418;18.882;2023-06-14T08:01:43;10.98;;;6.93;;
38379;SDS011;38377;47.418;18.882;2023-06-14T08:04:13;11.93;;;6.50;;
38379;SDS011;38377;47.418;18.882;2023-06-14T08:06:39;13.60;;;7.45;;
38379;SDS011;38377;47.418;18.882;2023-06-14T08:09:09;9.73;;;7.05;;
38379;SDS011;38377;47.418;18.882;2023-06-14T08:11:35;9.10;;;5.93;;
38379;SDS011;38377;47.418;18.882;2023-06-14T08:14:01;8.80;;;5.70;;
38379;SDS011;38377;47.418;18.882;2023-06-14T08:16:26;9.23;;;5.40;;
38379;SDS011;38377;47.418;18.882;2023-06-14T08:18:52;11.07;;;4.95;;
38379;SDS011;38377;47.418;18.882;2023-06-14T08:21:18;8.40;;;4.53;;
38379;SDS011;38377;47.418;18.882;2023-06-14T08:23:44;7.47;;;4.72;;
38379;SDS011;38377;47.418;18.882;2023-06-14T08:26:10;5.00;;;3.80;;
38379;SDS011;38377;47.418;18.882;2023-06-14T08:28:36;5.20;;;4.00;;
38379;SDS011;38377;47.418;18.882;2023-06-14T08:31:01;6.63;;;4.30;;
38379;SDS011;38377;47.418;18.882;2023-06-14T08:33:27;8.35;;;5.13;;
38379;SDS011;38377;47.418;18.882;2023-06-14T08:35:53;8.73;;;4.72;;
38379;SDS011;38377;47.418;18.882;2023-06-14T08:38:19;6.40;;;4.65;;
38379;SDS011;38377;47.418;18.882;2023-06-14T08:40:45;12.35;;;5.43;;
38379;SDS011;38377;47.418;18.882;2023-06-14T08:43:15;9.63;;;5.05;;
38379;SDS011;38377;47.418;18.882;2023-06-14T08:45:41;5.47;;;4.50;;
38379;SDS011;38377;47.418;18.882;2023-06-14T08:48:07;13.23;;;5.53;;
38379;SDS011;38377;47.418;18.882;2023-06-14T08:50:33;14.80;;;5.10;;
38379;SDS011;38377;47.418;18.882;2023-06-14T08:53:01;8.80;;;4.80;;
38379;SDS011;38377;47.418;18.882;2023-06-14T08:55:28;8.48;;;5.40;;
38379;SDS011;38377;47.418;18.882;2023-06-14T08:57:55;9.15;;;5.88;;
38379;SDS011;38377;47.418;18.882;2023-06-14T09:00:23;10.80;;;6.00;;
38379;SDS011;38377;47.418;18.882;2023-06-14T09:02:50;13.27;;;5.65;;
38379;SDS011;38377;47.418;18.882;2023-06-14T09:05:20;8.98;;;5.10;;
38379;SDS011;38377;47.418;18.882;2023-06-14T09:07:48;7.68;;;5.28;;
38379;SDS011;38377;47.418;18.882;2023-06-14T09:10:15;8.52;;;5.63;;
38379;SDS011;38377;47.418;18.882;2023-06-14T09:12:42;9.15;;;6.03;;
38379;SDS011;38377;47.418;18.882;2023-06-14T09:15:08;11.23;;;6.22;;
38379;SDS011;38377;47.418;18.882;2023-06-14T09:17:35;5.90;;;5.28;;
38379;SDS011;38377;47.418;18.882;2023-06-14T09:20:02;9.27;;;5.15;;
38379;SDS011;38377;47.418;18.882;2023-06-14T09:22:31;9.40;;;5.40;;
38379;SDS011;38377;47.418;18.882;2023-06-14T09:25:00;10.75;;;6.68;;
38379;SDS011;38377;47.418;18.882;2023-06-14T09:27:27;8.73;;;5.65;;
38379;SDS011;38377;47.418;18.882;2023-06-14T09:29:53;8.38;;;5.80;;
38379;SDS011;38377;47.418;18.882;2023-06-14T09:32:20;10.57;;;6.07;;
38379;SDS011;38377;47.418;18.882;2023-06-14T09:34:46;6.55;;;5.85;;
38379;SDS011;38377;47.418;18.882;2023-06-14T09:37:13;6.88;;;5.03;;
38379;SDS011;38377;47.418;18.882;2023-06-14T09:39:54;8.48;;;5.25;;
38379;SDS011;38377;47.418;18.882;2023-06-14T09:42:20;6.28;;;4.50;;
38379;SDS011;38377;47.418;18.882;2023-06-14T09:44:49;7.55;;;4.57;;
38379;SDS011;38377;47.418;18.882;2023-06-14T09:47:16;6.20;;;4.50;;
38379;SDS011;38377;47.418;18.882;2023-06-14T09:49:42;6.10;;;4.30;;
38379;SDS011;38377;47.418;18.882;2023-06-14T09:52:29;5.97;;;4.18;;
38379;SDS011;38377;47.418;18.882;2023-06-14T09:54:55;9.38;;;4.55;;
38379;SDS011;38377;47.418;18.882;2023-06-14T09:57:21;6.47;;;4.50;;
38379;SDS011;38377;47.418;18.882;2023-06-14T09:59:48;9.13;;;4.78;;
38379;SDS011;38377;47.418;18.882;2023-06-14T10:05:05;10.07;;;4.60;;
38379;SDS011;38377;47.418;18.882;2023-06-14T10:07:52;5.53;;;3.95;;
38379;SDS011;38377;47.418;18.882;2023-06-14T10:12:50;5.10;;;3.28;;
38379;SDS011;38377;47.418;18.882;2023-06-14T10:15:19;5.50;;;3.20;;
38379;SDS011;38377;47.418;18.882;2023-06-14T10:20:51;4.78;;;3.60;;
38379;SDS011;38377;47.418;18.882;2023-06-14T10:23:35;3.90;;;2.90;;
38379;SDS011;38377;47.418;18.882;2023-06-14T10:26:05;4.18;;;2.67;;
38379;SDS011;38377;47.418;18.882;2023-06-14T10:28:31;4.00;;;2.60;;
38379;SDS011;38377;47.418;18.882;2023-06-14T10:31:07;3.97;;;2.65;;
38379;SDS011;38377;47.418;18.882;2023-06-14T10:33:55;4.53;;;2.80;;
38379;SDS011;38377;47.418;18.882;2023-06-14T10:39:01;3.35;;;2.00;;
38379;SDS011;38377;47.418;18.882;2023-06-14T10:41:37;3.78;;;2.47;;
38379;SDS011;38377;47.418;18.882;2023-06-14T10:46:38;2.95;;;2.60;;
38379;SDS011;38377;47.418;18.882;2023-06-14T10:49:04;3.05;;;2.55;;
38379;SDS011;38377;47.418;18.882;2023-06-14T10:51:37;5.28;;;3.00;;
38379;SDS011;38377;47.418;18.882;2023-06-14T10:54:12;3.90;;;2.30;;
38379;SDS011;38377;47.418;18.882;2023-06-14T10:56:38;2.90;;;2.10;;
38379;SDS011;38377;47.418;18.882;2023-06-14T10:59:14;4.75;;;3.45;;
38379;SDS011;38377;47.418;18.882;2023-06-14T11:01:47;3.47;;;2.63;;
38379;SDS011;38377;47.418;18.882;2023-06-14T11:04:50;2.95;;;2.28;;
38379;SDS011;38377;47.418;18.882;2023-06-14T11:10:28;3.83;;;2.78;;
38379;SDS011;38377;47.418;18.882;2023-06-14T11:12:58;3.35;;;2.55;;
38379;SDS011;38377;47.418;18.882;2023-06-14T11:15:28;4.00;;;2.35;;
38379;SDS011;38377;47.418;18.882;2023-06-14T11:17:55;3.17;;;2.78;;
38379;SDS011;38377;47.418;18.882;2023-06-14T11:20:24;2.78;;;2.50;;
38379;SDS011;38377;47.418;18.882;2023-06-14T11:22:51;6.32;;;3.03;;
38379;SDS011;38377;47.418;18.882;2023-06-14T11:25:18;3.58;;;2.33;;
38379;SDS011;38377;47.418;18.882;2023-06-14T11:27:44;3.83;;;2.53;;
38379;SDS011;38377;47.418;18.882;2023-06-14T11:30:10;4.68;;;2.97;;
38379;SDS011;38377;47.418;18.882;2023-06-14T11:32:38;2.80;;;2.40;;
38379;SDS011;38377;47.418;18.882;2023-06-14T11:35:04;3.40;;;2.70;;
38379;SDS011;38377;47.418;18.882;2023-06-14T11:37:31;4.95;;;2.63;;
38379;SDS011;38377;47.418;18.882;2023-06-14T11:40:01;3.38;;;2.70;;
38379;SDS011;38377;47.418;18.882;2023-06-14T11:42:33;3.55;;;2.47;;
38379;SDS011;38377;47.418;18.882;2023-06-14T11:44:59;3.25;;;2.78;;
38379;SDS011;38377;47.418;18.882;2023-06-14T11:47:24;4.20;;;2.78;;
38379;SDS011;38377;47.418;18.882;2023-06-14T11:49:58;3.55;;;2.53;;
38379;SDS011;38377;47.418;18.882;2023-06-14T11:52:26;4.60;;;2.30;;
38379;SDS011;38377;47.418;18.882;2023-06-14T11:54:52;3.70;;;2.65;;
38379;SDS011;38377;47.418;18.882;2023-06-14T11:57:19;3.63;;;3.05;;
38379;SDS011;38377;47.418;18.882;2023-06-14T11:59:45;3.25;;;2.45;;
38379;SDS011;38377;47.418;18.882;2023-06-14T12:02:15;3.10;;;2.72;;
38379;SDS011;38377;47.418;18.882;2023-06-14T12:04:41;3.53;;;2.00;;
38379;SDS011;38377;47.418;18.882;2023-06-14T12:07:11;3.92;;;3.10;;
38379;SDS011;38377;47.418;18.882;2023-06-14T12:09:40;4.38;;;2.75;;
38379;SDS011;38377;47.418;18.882;2023-06-14T12:12:08;3.40;;;2.58;;
38379;SDS011;38377;47.418;18.882;2023-06-14T12:14:34;2.97;;;2.33;;
38379;SDS011;38377;47.418;18.882;2023-06-14T12:17:03;2.95;;;2.65;;
38379;SDS011;38377;47.418;18.882;2023-06-14T12:19:33;3.25;;;2.83;;
38379;SDS011;38377;47.418;18.882;2023-06-14T12:22:08;4.15;;;2.75;;
38379;SDS011;38377;47.418;18.882;2023-06-14T12:24:35;3.45;;;3.15;;
38379;SDS011;38377;47.418;18.882;2023-06-14T12:27:01;3.53;;;2.78;;
38379;SDS011;38377;47.418;18.882;2023-06-14T12:29:30;5.63;;;3.13;;
38379;SDS011;38377;47.418;18.882;2023-06-14T12:31:56;4.65;;;2.75;;
38379;SDS011;38377;47.418;18.882;2023-06-14T12:34:23;5.78;;;3.50;;
38379;SDS011;38377;47.418;18.882;2023-06-14T12:36:52;7.57;;;3.50;;
38379;SDS011;38377;47.418;18.882;2023-06-14T12:39:18;4.78;;;3.60;;
38379;SDS011;38377;47.418;18.882;2023-06-14T12:41:44;10.90;;;3.90;;
38379;SDS011;38377;47.418;18.882;2023-06-14T12:44:11;5.15;;;3.50;;
38379;SDS011;38377;47.418;18.882;2023-06-14T12:46:37;6.53;;;3.33;;
38379;SDS011;38377;47.418;18.882;2023-06-14T12:49:04;4.25;;;3.38;;
38379;SDS011;38377;47.418;18.882;2023-06-14T12:51:31;4.10;;;3.45;;
38379;SDS011;38377;47.418;18.882;2023-06-14T12:53:57;6.65;;;4.38;;
38379;SDS011;38377;47.418;18.882;2023-06-14T12:56:23;6.13;;;3.15;;
38379;SDS011;38377;47.418;18.882;2023-06-14T12:58:48;5.15;;;3.60;;
38379;SDS011;38377;47.418;18.882;2023-06-14T13:01:14;4.05;;;3.00;;
38379;SDS011;38377;47.418;18.882;2023-06-14T13:03:40;4.82;;;3.50;;
38379;SDS011;38377;47.418;18.882;2023-06-14T13:06:06;5.07;;;3.72;;
38379;SDS011;38377;47.418;18.882;2023-06-14T13:08:31;9.15;;;5.85;;
38379;SDS011;38377;47.418;18.882;2023-06-14T13:10:57;5.60;;;3.33;;
38379;SDS011;38377;47.418;18.882;2023-06-14T13:13:23;4.18;;;3.05;;
38379;SDS011;38377;47.418;18.882;2023-06-14T13:15:49;5.63;;;3.08;;
38379;SDS011;38377;47.418;18.882;2023-06-14T13:18:15;5.32;;;3.25;;
38379;SDS011;38377;47.418;18.882;2023-06-14T13:20:41;6.45;;;3.75;;
38379;SDS011;38377;47.418;18.882;2023-06-14T13:23:08;3.58;;;3.28;;
38379;SDS011;38377;47.418;18.882;2023-06-14T13:25:35;7.10;;;3.65;;
38379;SDS011;38377;47.418;18.882;2023-06-14T13:28:02;3.85;;;3.35;;
38379;SDS011;38377;47.418;18.882;2023-06-14T13:30:28;3.92;;;3.10;;
38379;SDS011;38377;47.418;18.882;2023-06-14T13:32:54;5.97;;;3.50;;
38379;SDS011;38377;47.418;18.882;2023-06-14T13:35:21;4.35;;;3.47;;
38379;SDS011;38377;47.418;18.882;2023-06-14T13:37:47;4.07;;;3.30;;
38379;SDS011;38377;47.418;18.882;2023-06-14T13:40:13;4.80;;;3.42;;
38379;SDS011;38377;47.418;18.882;2023-06-14T13:42:39;7.47;;;3.60;;
38379;SDS011;38377;47.418;18.882;2023-06-14T13:45:05;5.00;;;3.90;;
38379;SDS011;38377;47.418;18.882;2023-06-14T13:47:31;4.70;;;3.25;;
38379;SDS011;38377;47.418;18.882;2023-06-14T13:49:57;5.50;;;3.35;;
38379;SDS011;38377;47.418;18.882;2023-06-14T13:52:23;4.00;;;3.60;;
38379;SDS011;38377;47.418;18.882;2023-06-14T13:54:50;5.05;;;2.75;;
38379;SDS011;38377;47.418;18.882;2023-06-14T13:57:18;5.68;;;3.83;;
38379;SDS011;38377;47.418;18.882;2023-06-14T13:59:45;3.45;;;2.90;;
38379;SDS011;38377;47.418;18.882;2023-06-14T14:02:12;6.88;;;3.17;;
38379;SDS011;38377;47.418;18.882;2023-06-14T14:04:38;4.03;;;3.25;;
38379;SDS011;38377;47.418;18.882;2023-06-14T14:07:05;3.75;;;2.50;;
38379;SDS011;38377;47.418;18.882;2023-06-14T14:09:33;15.43;;;3.63;;
38379;SDS011;38377;47.418;18.882;2023-06-14T14:12:01;4.05;;;2.70;;
38379;SDS011;38377;47.418;18.882;2023-06-14T14:14:28;5.78;;;2.95;;
38379;SDS011;38377;47.418;18.882;2023-06-14T14:16:55;5.57;;;2.83;;
38379;SDS011;38377;47.418;18.882;2023-06-14T14:19:22;4.68;;;3.00;;
38379;SDS011;38377;47.418;18.882;2023-06-14T14:21:48;5.07;;;2.65;;
38379;SDS011;38377;47.418;18.882;2023-06-14T14:24:14;4.32;;;3.10;;
38379;SDS011;38377;47.418;18.882;2023-06-14T14:26:41;4.78;;;2.97;;
38379;SDS011;38377;47.418;18.882;2023-06-14T14:29:08;5.13;;;3.03;;
38379;SDS011;38377;47.418;18.882;2023-06-14T14:31:36;6.57;;;2.90;;
38379;SDS011;38377;47.418;18.882;2023-06-14T14:34:02;4.03;;;2.53;;
38379;SDS011;38377;47.418;18.882;2023-06-14T14:36:29;3.22;;;2.75;;
38379;SDS011;38377;47.418;18.882;2023-06-14T14:38:55;6.53;;;2.70;;
38379;SDS011;38377;47.418;18.882;2023-06-14T14:41:21;5.57;;;2.92;;
38379;SDS011;38377;47.418;18.882;2023-06-14T14:43:47;4.43;;;3.00;;
38379;SDS011;38377;47.418;18.882;2023-06-14T14:46:13;6.65;;;3.28;;
38379;SDS011;38377;47.418;18.882;2023-06-14T14:48:42;4.05;;;2.75;;
38379;SDS011;38377;47.418;18.882;2023-06-14T14:51:08;3.78;;;2.67;;
38379;SDS011;38377;47.418;18.882;2023-06-14T14:53:35;3.28;;;2.90;;
38379;SDS011;38377;47.418;18.882;2023-06-14T14:56:00;4.43;;;2.47;;